createdAt,value
2022-09-12T00:01:17.170Z,3.90
2022-09-12T00:03:43.604Z,3.47
2022-09-12T00:06:23.192Z,3.33
2022-09-12T00:08:51.051Z,3.40
2022-09-12T00:11:17.564Z,3.60
2022-09-12T00:13:44.258Z,3.83
2022-09-12T00:16:23.118Z,3.75
2022-09-12T00:18:49.734Z,3.53
2022-09-12T00:21:18.009Z,3.58
2022-09-12T00:23:45.146Z,3.70
2022-09-12T00:26:12.373Z,3.28
2022-09-12T00:28:40.309Z,3.42
2022-09-12T00:31:09.609Z,3.47
2022-09-12T00:33:36.449Z,3.83
2022-09-12T00:36:22.837Z,4.35
2022-09-12T00:38:50.214Z,3.83
2022-09-12T00:41:20.270Z,3.10
2022-09-12T00:43:59.150Z,3.35
2022-09-12T00:46:35.086Z,3.03
2022-09-12T00:49:08.006Z,4.00
2022-09-12T00:51:37.529Z,3.20
2022-09-12T00:54:10.444Z,3.60
2022-09-12T00:56:38.754Z,3.38
2022-09-12T00:59:15.450Z,3.67
2022-09-12T01:01:43.456Z,3.53
2022-09-12T01:04:11.680Z,3.47
2022-09-12T01:06:41.972Z,3.45
2022-09-12T01:09:09.577Z,2.47
2022-09-12T01:11:38.630Z,3.33
2022-09-12T01:14:05.382Z,4.00
2022-09-12T01:16:34.366Z,4.65
2022-09-12T01:19:31.912Z,4.03
2022-09-12T01:22:22.750Z,4.22
2022-09-12T01:25:26.854Z,5.95
2022-09-12T01:28:12.472Z,5.00
2022-09-12T01:30:55.717Z,5.40
2022-09-12T01:33:31.921Z,4.00
2022-09-12T01:36:37.434Z,5.68
2022-09-12T01:41:56.828Z,4.97
2022-09-12T01:44:37.602Z,5.80
2022-09-12T01:47:10.122Z,5.72
2022-09-12T01:49:59.004Z,7.05
2022-09-12T01:52:42.753Z,8.40
2022-09-12T01:55:19.092Z,8.48
2022-09-12T01:58:05.086Z,6.72
2022-09-12T02:00:39.526Z,7.10
2022-09-12T02:05:47.809Z,8.32
2022-09-12T02:08:18.781Z,6.65
2022-09-12T02:10:50.917Z,6.18
2022-09-12T02:13:27.075Z,7.10
2022-09-12T02:16:05.876Z,6.95
2022-09-12T02:18:34.138Z,6.78
2022-09-12T02:21:04.214Z,6.63
2022-09-12T02:23:33.740Z,5.65
2022-09-12T02:26:12.946Z,7.95
2022-09-12T02:28:43.019Z,6.28
2022-09-12T02:31:34.503Z,6.05
2022-09-12T02:34:39.779Z,5.68
2022-09-12T02:37:06.124Z,4.50
2022-09-12T02:39:33.235Z,7.03
2022-09-12T02:42:02.860Z,6.28
2022-09-12T02:44:31.867Z,8.18
2022-09-12T02:47:04.766Z,7.78
2022-09-12T02:49:31.254Z,7.97
2022-09-12T02:51:58.822Z,7.55
2022-09-12T02:54:26.014Z,5.22
2022-09-12T02:56:52.471Z,8.18
2022-09-12T02:59:22.069Z,8.35
2022-09-12T03:02:01.289Z,7.60
2022-09-12T03:04:49.350Z,8.52
2022-09-12T03:07:21.781Z,7.80
2022-09-12T03:10:00.229Z,8.05
2022-09-12T03:12:49.363Z,7.35
2022-09-12T03:15:42.153Z,6.55
2022-09-12T03:18:27.104Z,7.38
2022-09-12T03:21:30.953Z,6.80
2022-09-12T03:24:12.566Z,6.82
2022-09-12T03:26:47.477Z,6.32
2022-09-12T03:29:15.212Z,6.35
2022-09-12T03:31:52.637Z,6.28
2022-09-12T03:34:20.333Z,6.70
2022-09-12T03:36:46.948Z,6.85
2022-09-12T03:39:13.390Z,5.78
2022-09-12T03:41:39.766Z,5.93
2022-09-12T03:44:06.418Z,6.00
2022-09-12T03:46:32.887Z,6.55
2022-09-12T03:48:59.255Z,7.05
2022-09-12T03:51:25.849Z,7.38
2022-09-12T03:53:52.198Z,7.50
2022-09-12T03:56:19.299Z,7.82
2022-09-12T03:58:45.798Z,7.43
2022-09-12T04:01:20.698Z,6.13
2022-09-12T04:03:49.892Z,6.50
2022-09-12T04:06:18.482Z,6.05
2022-09-12T04:08:47.894Z,6.95
2022-09-12T04:11:15.155Z,6.38
2022-09-12T04:13:43.254Z,6.07
2022-09-12T04:16:10.193Z,6.57
2022-09-12T04:18:36.681Z,7.00
2022-09-12T04:21:08.716Z,6.65
2022-09-12T04:23:35.422Z,5.72
2022-09-12T04:26:03.125Z,5.43
2022-09-12T04:28:29.946Z,6.30
2022-09-12T04:30:56.834Z,7.22
2022-09-12T04:33:23.402Z,7.75
2022-09-12T04:35:50.273Z,7.38
2022-09-12T04:38:16.685Z,6.75
2022-09-12T04:40:43.033Z,5.70
2022-09-12T04:43:14.230Z,6.72
2022-09-12T04:45:41.067Z,6.00
2022-09-12T04:48:07.497Z,6.07
2022-09-12T04:50:33.845Z,6.00
2022-09-12T04:53:00.186Z,6.32
2022-09-12T04:55:26.671Z,5.85
2022-09-12T04:57:53.073Z,4.90
2022-09-12T05:00:20.505Z,5.22
2022-09-12T05:02:46.873Z,5.43
2022-09-12T05:05:13.263Z,5.90
2022-09-12T05:07:40.344Z,6.28
2022-09-12T05:10:07.281Z,7.70
2022-09-12T05:12:33.904Z,8.07
2022-09-12T05:15:00.263Z,7.50
2022-09-12T05:17:29.461Z,8.35
2022-09-12T05:19:55.916Z,8.65
2022-09-12T05:22:22.768Z,7.57
2022-09-12T05:24:50.703Z,7.97
2022-09-12T05:27:17.523Z,7.20
2022-09-12T05:29:43.996Z,6.22
2022-09-12T05:32:12.376Z,7.25
2022-09-12T05:34:40.166Z,8.18
2022-09-12T05:37:06.569Z,7.43
2022-09-12T05:39:32.914Z,9.57
2022-09-12T05:41:59.245Z,9.30
2022-09-12T05:44:25.654Z,7.32
2022-09-12T05:46:53.526Z,10.07
2022-09-12T05:49:21.368Z,9.40
2022-09-12T05:51:47.769Z,8.68
2022-09-12T05:54:17.697Z,10.57
2022-09-12T05:56:44.653Z,10.05
2022-09-12T05:59:15.299Z,9.73
2022-09-12T06:01:42.493Z,8.38
2022-09-12T06:04:09.145Z,8.52
2022-09-12T06:06:38.644Z,8.43
2022-09-12T06:09:06.249Z,6.93
2022-09-12T06:11:37.171Z,9.15
2022-09-12T06:14:04.219Z,9.02
2022-09-12T06:16:33.448Z,8.38
2022-09-12T06:19:12.679Z,10.32
2022-09-12T06:21:39.789Z,8.15
2022-09-12T06:24:07.434Z,7.88
2022-09-12T06:26:34.263Z,9.45
2022-09-12T06:29:01.090Z,9.68
2022-09-12T06:31:30.527Z,9.68
2022-09-12T06:34:00.910Z,9.00
2022-09-12T06:36:29.510Z,9.25
2022-09-12T06:38:58.337Z,8.75
2022-09-12T06:41:26.098Z,10.90
2022-09-12T06:43:53.565Z,12.40
2022-09-12T06:46:20.376Z,11.27
2022-09-12T06:48:47.217Z,13.30
2022-09-12T06:51:16.865Z,15.95
2022-09-12T06:53:44.702Z,10.77
2022-09-12T06:56:16.165Z,11.43
2022-09-12T06:58:43.801Z,13.38
2022-09-12T07:01:18.898Z,11.85
2022-09-12T07:03:51.025Z,13.00
2022-09-12T07:06:19.553Z,11.57
2022-09-12T07:08:46.864Z,12.02
2022-09-12T07:11:15.553Z,11.13
2022-09-12T07:13:43.679Z,13.98
2022-09-12T07:16:13.019Z,12.27
2022-09-12T07:18:43.517Z,12.50
2022-09-12T07:21:13.682Z,10.35
2022-09-12T07:23:41.831Z,12.73
2022-09-12T07:26:12.077Z,9.68
2022-09-12T07:28:39.142Z,8.18
2022-09-12T07:31:11.426Z,8.95
2022-09-12T07:33:38.951Z,13.07
2022-09-12T07:36:16.149Z,11.48
2022-09-12T07:38:43.888Z,8.95
2022-09-12T07:41:15.703Z,8.35
2022-09-12T07:43:42.199Z,10.80
2022-09-12T07:46:09.247Z,10.48
2022-09-12T07:48:35.884Z,8.73
2022-09-12T07:51:04.750Z,7.80
2022-09-12T07:53:34.092Z,7.68
2022-09-12T07:56:00.834Z,7.93
2022-09-12T07:58:27.224Z,8.70
2022-09-12T08:00:53.573Z,8.07
2022-09-12T08:03:19.924Z,8.63
2022-09-12T08:05:46.503Z,8.85
2022-09-12T08:08:12.833Z,7.95
2022-09-12T08:10:39.297Z,7.55
2022-09-12T08:13:05.678Z,8.93
2022-09-12T08:15:32.200Z,7.93
2022-09-12T08:17:58.748Z,7.72
2022-09-12T08:20:28.246Z,8.23
2022-09-12T08:22:55.062Z,9.13
2022-09-12T08:25:21.547Z,5.82
2022-09-12T08:27:48.287Z,6.13
2022-09-12T08:30:14.784Z,7.10
2022-09-12T08:32:41.137Z,5.80
2022-09-12T08:35:08.033Z,6.60
2022-09-12T08:37:34.443Z,6.85
2022-09-12T08:40:00.926Z,7.43
2022-09-12T08:42:59.770Z,6.90
2022-09-12T08:45:36.693Z,5.95
2022-09-12T08:48:05.372Z,7.05
2022-09-12T08:50:32.484Z,6.63
2022-09-12T08:53:03.312Z,7.57
2022-09-12T08:55:33.486Z,6.70
2022-09-12T08:58:02.719Z,5.68
2022-09-12T09:00:38.630Z,8.77
2022-09-12T09:03:29.290Z,7.70
2022-09-12T09:06:06.824Z,6.45
2022-09-12T09:08:48.450Z,7.65
2022-09-12T09:11:29.969Z,7.45
2022-09-12T09:14:39.638Z,7.18
2022-09-12T09:17:12.257Z,6.82
2022-09-12T09:19:48.797Z,8.07
2022-09-12T09:22:40.149Z,8.35
2022-09-12T09:25:22.115Z,7.50
2022-09-12T09:28:00.922Z,8.55
2022-09-12T09:30:28.763Z,6.28
2022-09-12T09:32:59.718Z,7.38
2022-09-12T09:35:37.871Z,7.68
2022-09-12T09:38:48.288Z,5.55
2022-09-12T09:41:20.743Z,5.80
2022-09-12T09:43:47.171Z,4.47
2022-09-12T09:46:14.194Z,3.95
2022-09-12T09:48:44.895Z,2.97
2022-09-12T09:51:13.702Z,3.60
2022-09-12T09:53:48.536Z,3.72
2022-09-12T09:56:23.142Z,3.47
2022-09-12T09:58:49.762Z,3.75
2022-09-12T10:01:17.664Z,3.20
2022-09-12T10:03:56.033Z,3.80
2022-09-12T10:06:26.665Z,3.08
2022-09-12T10:09:06.183Z,2.80
2022-09-12T10:11:33.070Z,3.60
2022-09-12T10:14:01.303Z,3.30
2022-09-12T10:16:28.905Z,3.10
2022-09-12T10:18:57.830Z,3.05
2022-09-12T10:21:51.485Z,2.95
2022-09-12T10:24:22.595Z,2.60
2022-09-12T10:27:12.035Z,2.00
2022-09-12T10:29:45.892Z,2.75
2022-09-12T10:32:18.595Z,2.75
2022-09-12T10:34:45.656Z,3.42
2022-09-12T10:37:25.553Z,2.55
2022-09-12T10:39:55.052Z,2.30
2022-09-12T10:42:49.563Z,3.33
2022-09-12T10:45:22.714Z,2.25
2022-09-12T10:47:49.618Z,1.87
2022-09-12T10:50:23.456Z,2.38
2022-09-12T10:52:49.865Z,2.60
2022-09-12T10:55:16.869Z,2.40
2022-09-12T10:57:59.813Z,2.42
2022-09-12T11:00:27.966Z,2.70
2022-09-12T11:03:23.781Z,2.38
2022-09-12T11:06:00.395Z,2.47
2022-09-12T11:08:38.739Z,2.45
2022-09-12T11:11:37.113Z,3.67
2022-09-12T11:14:25.118Z,2.80
2022-09-12T11:17:13.276Z,2.67
2022-09-12T11:19:58.807Z,2.78
2022-09-12T11:22:36.617Z,2.70
2022-09-12T11:25:17.912Z,3.50
2022-09-12T11:28:07.702Z,4.22
2022-09-12T11:30:43.136Z,3.65
2022-09-12T11:33:27.473Z,4.35
2022-09-12T11:35:57.214Z,4.45
2022-09-12T11:38:44.801Z,4.18
2022-09-12T11:41:31.807Z,3.00
2022-09-12T11:44:23.032Z,2.70
2022-09-12T11:46:51.912Z,3.35
2022-09-12T11:49:37.515Z,2.53
2022-09-12T11:52:33.092Z,2.88
2022-09-12T11:55:06.205Z,4.30
2022-09-12T11:57:54.003Z,2.80
2022-09-12T12:00:49.768Z,3.55
2022-09-12T12:03:37.110Z,3.80
2022-09-12T12:06:12.638Z,3.90
2022-09-12T12:08:42.053Z,3.03
2022-09-12T12:11:10.602Z,3.33
2022-09-12T12:13:43.154Z,3.78
2022-09-12T12:16:17.803Z,3.08
2022-09-12T12:18:44.596Z,2.88
2022-09-12T12:21:31.965Z,2.75
2022-09-12T12:24:05.193Z,2.67
2022-09-12T12:26:40.612Z,2.63
2022-09-12T12:29:43.636Z,3.22
2022-09-12T12:32:10.477Z,2.67
2022-09-12T12:34:37.964Z,1.88
2022-09-12T12:37:19.659Z,1.75
2022-09-12T12:39:47.847Z,1.98
2022-09-12T12:42:32.937Z,2.38
2022-09-12T12:45:00.597Z,2.50
2022-09-12T12:47:39.937Z,1.60
2022-09-12T12:50:11.319Z,1.50
2022-09-12T12:52:46.716Z,1.80
2022-09-12T12:55:23.763Z,1.92
2022-09-12T12:57:52.653Z,1.55
2022-09-12T13:00:24.954Z,1.45
2022-09-12T13:02:59.777Z,1.60
2022-09-12T13:05:27.943Z,2.20
2022-09-12T13:07:58.204Z,2.33
2022-09-12T13:10:29.245Z,1.42
2022-09-12T13:13:03.396Z,1.10
2022-09-12T13:15:36.021Z,1.10
2022-09-12T13:18:11.133Z,1.35
2022-09-12T13:20:49.859Z,1.70
2022-09-12T13:23:31.704Z,1.30
2022-09-12T13:26:00.564Z,1.42
2022-09-12T13:28:31.082Z,1.40
2022-09-12T13:31:02.874Z,1.15
2022-09-12T13:33:45.166Z,1.15
2022-09-12T13:36:31.358Z,0.93
2022-09-12T13:39:20.646Z,0.90
2022-09-12T13:42:00.034Z,0.80
2022-09-12T13:44:28.108Z,1.00
2022-09-12T13:46:58.862Z,1.00
2022-09-12T13:49:38.521Z,0.70
2022-09-12T13:52:09.087Z,0.90
2022-09-12T13:54:38.813Z,1.40
2022-09-12T13:57:06.023Z,0.75
2022-09-12T13:59:41.068Z,1.10
2022-09-12T14:02:19.828Z,0.90
2022-09-12T14:05:11.364Z,1.00
2022-09-12T14:08:00.168Z,1.00
2022-09-12T14:10:37.004Z,0.70
2022-09-12T14:13:12.621Z,0.77
2022-09-12T14:15:44.126Z,0.70
2022-09-12T14:18:27.566Z,1.17
2022-09-12T14:20:56.964Z,1.00
2022-09-12T14:23:33.635Z,0.93
2022-09-12T14:26:06.509Z,0.90
2022-09-12T14:28:34.281Z,0.90
2022-09-12T14:31:21.816Z,1.10
2022-09-12T14:33:54.536Z,0.82
2022-09-12T14:36:23.260Z,0.90
2022-09-12T14:38:57.040Z,0.77
2022-09-12T14:41:33.900Z,0.75
2022-09-12T14:44:04.899Z,0.60
2022-09-12T14:46:36.966Z,0.93
2022-09-12T14:49:34.500Z,0.85
2022-09-12T14:52:04.661Z,1.48
2022-09-12T14:54:31.211Z,1.10
2022-09-12T14:57:03.062Z,1.00
2022-09-12T14:59:30.778Z,1.40
2022-09-12T15:02:19.400Z,1.15
2022-09-12T15:04:54.289Z,1.05
2022-09-12T15:07:48.166Z,0.82
2022-09-12T15:10:18.194Z,0.90
2022-09-12T15:12:44.987Z,0.90
2022-09-12T15:15:20.869Z,1.20
2022-09-12T15:17:47.656Z,1.05
2022-09-12T15:20:14.747Z,1.33
2022-09-12T15:22:42.379Z,1.30
2022-09-12T15:25:12.275Z,0.98
2022-09-12T15:27:42.203Z,0.88
2022-09-12T15:30:10.362Z,1.27
2022-09-12T15:32:37.174Z,1.75
2022-09-12T15:35:03.992Z,1.02
2022-09-12T15:37:31.030Z,1.30
2022-09-12T15:39:57.466Z,1.60
2022-09-12T15:42:29.111Z,0.90
2022-09-12T15:44:57.536Z,1.40
2022-09-12T15:47:27.004Z,1.30
2022-09-12T15:49:53.392Z,1.45
2022-09-12T15:52:19.749Z,1.42
2022-09-12T15:54:46.082Z,1.13
2022-09-12T15:57:12.438Z,1.40
2022-09-12T15:59:38.797Z,1.20
2022-09-12T16:02:05.282Z,0.90
2022-09-12T16:04:31.757Z,1.05
2022-09-12T16:06:58.400Z,0.90
2022-09-12T16:09:25.009Z,1.27
2022-09-12T16:11:51.814Z,1.27
2022-09-12T16:14:19.199Z,1.83
2022-09-12T16:16:52.197Z,1.27
2022-09-12T16:19:18.597Z,1.85
2022-09-12T16:21:45.634Z,1.48
2022-09-12T16:24:12.206Z,1.50
2022-09-12T16:26:38.600Z,1.67
2022-09-12T16:29:05.217Z,1.52
2022-09-12T16:31:31.696Z,1.30
2022-09-12T16:33:58.077Z,1.15
2022-09-12T16:36:24.542Z,1.30
2022-09-12T16:38:53.084Z,1.75
2022-09-12T16:41:22.206Z,1.10
2022-09-12T16:43:49.197Z,1.48
2022-09-12T16:46:18.874Z,1.10
2022-09-12T16:48:53.533Z,1.27
2022-09-12T16:51:23.701Z,2.38
2022-09-12T16:53:50.638Z,1.65
2022-09-12T16:56:17.756Z,1.35
2022-09-12T16:58:44.976Z,1.35
2022-09-12T17:01:14.976Z,1.13
2022-09-12T17:03:41.640Z,1.88
2022-09-12T17:06:10.326Z,1.70
2022-09-12T17:08:39.010Z,1.23
2022-09-12T17:11:08.672Z,1.50
2022-09-12T17:13:53.298Z,1.65
2022-09-12T17:16:22.421Z,1.20
2022-09-12T17:18:49.408Z,1.65
2022-09-12T17:21:16.052Z,1.95
2022-09-12T17:23:42.497Z,1.17
2022-09-12T17:26:10.099Z,1.38
2022-09-12T17:28:37.982Z,1.38
2022-09-12T17:31:07.138Z,1.30
2022-09-12T17:33:34.234Z,1.55
2022-09-12T17:36:05.218Z,1.35
2022-09-12T17:38:34.697Z,1.40
2022-09-12T17:41:17.839Z,1.35
2022-09-12T17:43:52.319Z,1.60
2022-09-12T17:46:19.572Z,1.63
2022-09-12T17:48:51.424Z,1.33
2022-09-12T17:51:17.886Z,1.58
2022-09-12T17:53:44.273Z,1.42
2022-09-12T17:56:11.192Z,1.23
2022-09-12T17:58:38.196Z,1.30
2022-09-12T18:01:26.435Z,1.73
2022-09-12T18:03:57.231Z,1.30
2022-09-12T18:06:23.935Z,1.40
2022-09-12T18:08:50.647Z,1.27
2022-09-12T18:11:17.470Z,1.60
2022-09-12T18:13:44.030Z,1.23
2022-09-12T18:16:12.067Z,1.40
2022-09-12T18:18:38.926Z,1.08
2022-09-12T18:21:07.247Z,1.30
2022-09-12T18:23:33.682Z,1.30
2022-09-12T18:26:08.377Z,1.23
2022-09-12T18:28:37.352Z,1.40
2022-09-12T18:31:05.052Z,1.45
2022-09-12T18:33:32.043Z,1.25
2022-09-12T18:36:03.801Z,1.30
2022-09-12T18:38:31.017Z,1.30
2022-09-12T18:41:08.461Z,1.45
2022-09-12T18:43:35.152Z,1.50
2022-09-12T18:46:09.298Z,1.40
2022-09-12T18:48:36.046Z,1.42
2022-09-12T18:51:05.566Z,1.52
2022-09-12T18:53:33.682Z,1.80
2022-09-12T18:56:02.206Z,1.40
2022-09-12T18:58:28.718Z,1.88
2022-09-12T19:00:55.395Z,1.67
2022-09-12T19:03:21.894Z,1.33
2022-09-12T19:05:48.250Z,3.35
2022-09-12T19:08:14.619Z,1.70
2022-09-12T19:10:41.047Z,2.00
2022-09-12T19:13:07.429Z,1.50
2022-09-12T19:15:33.818Z,1.73
2022-09-12T19:18:00.247Z,2.10
2022-09-12T19:20:26.609Z,2.03
2022-09-12T19:22:52.976Z,1.65
2022-09-12T19:25:19.335Z,1.95
2022-09-12T19:27:45.702Z,1.80
2022-09-12T19:30:12.134Z,1.98
2022-09-12T19:32:39.161Z,2.20
2022-09-12T19:35:05.914Z,2.53
2022-09-12T19:37:32.458Z,2.92
2022-09-12T19:39:58.989Z,2.10
2022-09-12T19:42:25.417Z,3.83
2022-09-12T19:44:55.669Z,2.95
2022-09-12T19:47:22.208Z,2.50
2022-09-12T19:49:48.539Z,2.83
2022-09-12T19:52:17.465Z,2.33
2022-09-12T19:54:45.311Z,2.30
2022-09-12T19:57:11.647Z,2.90
2022-09-12T19:59:37.996Z,1.92
2022-09-12T20:02:04.440Z,2.22
2022-09-12T20:04:32.345Z,3.10
2022-09-12T20:06:58.733Z,2.63
2022-09-12T20:09:25.327Z,2.63
2022-09-12T20:11:51.730Z,2.35
2022-09-12T20:14:18.162Z,1.77
2022-09-12T20:16:45.525Z,2.45
2022-09-12T20:19:11.892Z,2.17
2022-09-12T20:21:38.336Z,2.08
2022-09-12T20:24:15.750Z,2.22
2022-09-12T20:26:42.731Z,2.22
2022-09-12T20:29:10.027Z,2.08
2022-09-12T20:31:38.221Z,2.20
2022-09-12T20:34:05.118Z,2.58
2022-09-12T20:36:31.889Z,2.28
2022-09-12T20:39:01.160Z,2.20
2022-09-12T20:41:29.570Z,2.58
2022-09-12T20:43:57.108Z,3.15
2022-09-12T20:46:25.683Z,2.65
2022-09-12T20:48:52.510Z,3.17
2022-09-12T20:51:20.369Z,2.65
2022-09-12T20:53:47.246Z,2.42
2022-09-12T20:56:14.935Z,2.53
2022-09-12T20:58:44.075Z,2.97
2022-09-12T21:01:13.619Z,2.05
2022-09-12T21:03:41.342Z,1.90
2022-09-12T21:06:09.952Z,2.60
2022-09-12T21:08:37.234Z,3.53
2022-09-12T21:11:04.304Z,3.13
2022-09-12T21:13:30.859Z,3.00
2022-09-12T21:16:08.028Z,2.47
2022-09-12T21:18:35.961Z,2.40
2022-09-12T21:21:03.771Z,3.28
2022-09-12T21:23:30.765Z,2.20
2022-09-12T21:25:59.319Z,2.88
2022-09-12T21:28:26.621Z,2.65
2022-09-12T21:30:53.453Z,2.90
2022-09-12T21:33:21.012Z,2.28
2022-09-12T21:35:48.030Z,2.53
2022-09-12T21:38:15.181Z,2.80
2022-09-12T21:40:41.588Z,2.28
2022-09-12T21:43:12.514Z,2.35
2022-09-12T21:45:39.483Z,2.35
2022-09-12T21:48:05.840Z,2.30
2022-09-12T21:50:32.267Z,2.38
2022-09-12T21:52:58.673Z,2.78
2022-09-12T21:55:27.086Z,3.35
2022-09-12T21:57:54.318Z,3.17
2022-09-12T22:00:21.081Z,3.50
2022-09-12T22:02:48.565Z,4.03
2022-09-12T22:05:15.355Z,4.28
2022-09-12T22:07:41.774Z,3.78
2022-09-12T22:10:08.811Z,3.33
2022-09-12T22:12:35.279Z,3.92
2022-09-12T22:15:12.775Z,2.60
2022-09-12T22:17:48.071Z,2.63
2022-09-12T22:20:14.504Z,2.58
2022-09-12T22:22:59.277Z,3.03
2022-09-12T22:25:25.821Z,4.05
2022-09-12T22:27:52.643Z,3.38
2022-09-12T22:30:20.861Z,2.70
2022-09-12T22:32:49.622Z,3.10
2022-09-12T22:35:19.717Z,1.92
2022-09-12T22:37:46.936Z,2.25
2022-09-12T22:40:13.984Z,3.22
2022-09-12T22:42:40.423Z,3.10
2022-09-12T22:45:07.632Z,4.07
2022-09-12T22:47:34.048Z,2.95
2022-09-12T22:50:00.414Z,4.70
2022-09-12T22:52:26.755Z,3.25
2022-09-12T22:54:53.555Z,4.00
2022-09-12T22:57:19.893Z,4.25
2022-09-12T22:59:46.516Z,2.67
2022-09-12T23:02:13.055Z,3.20
2022-09-12T23:04:39.967Z,3.70
2022-09-12T23:07:06.621Z,3.67
2022-09-12T23:09:35.406Z,2.95
2022-09-12T23:12:02.447Z,3.00
2022-09-12T23:14:28.796Z,3.42
2022-09-12T23:16:55.574Z,4.28
2022-09-12T23:19:22.232Z,4.82
2022-09-12T23:21:48.633Z,3.25
2022-09-12T23:24:15.001Z,2.08
2022-09-12T23:26:41.328Z,2.60
2022-09-12T23:29:08.685Z,2.38
2022-09-12T23:31:35.315Z,2.15
2022-09-12T23:34:05.845Z,2.40
2022-09-12T23:36:33.364Z,2.25
2022-09-12T23:38:59.782Z,2.08
2022-09-12T23:41:26.295Z,2.90
2022-09-12T23:43:52.669Z,2.85
2022-09-12T23:46:20.335Z,3.55
2022-09-12T23:48:47.483Z,1.50
2022-09-12T23:51:14.195Z,2.63
2022-09-12T23:53:41.284Z,2.10
2022-09-12T23:56:08.001Z,1.75
2022-09-12T23:58:34.664Z,2.00
